Time;durP1;ratioP1;P1;durP2;ratioP2;P2;SDS_P1;SDS_P2;PMS_P1;PMS_P2;Temp;Humidity;BMP_temperature;BMP_pressure;BME280_temperature;BME280_humidity;BME280_pressure;Samples;Min_cycle;Max_cycle;Signal;HPM_P1;HPM_P2
2022/06/26 00:02:16;;;;;;;19.60;17.67;;;;;;;21.65;95.82;100559.56;5012857;28;20053;-66
2022/06/26 00:04:44;;;;;;;23.90;17.95;;;;;;;21.63;96.13;100555.38;5003964;28;20135;-66
2022/06/26 00:07:11;;;;;;;19.58;17.48;;;;;;;21.61;96.52;100565.41;5008930;28;20408;-68
2022/06/26 00:09:39;;;;;;;19.48;17.73;;;;;;;21.59;96.15;100570.94;5008041;28;20056;-68
2022/06/26 00:12:06;;;;;;;20.85;18.90;;;;;;;21.59;96.97;100568.25;5007873;28;20080;-68
2022/06/26 00:14:33;;;;;;;21.55;19.35;;;;;;;21.58;96.63;100569.25;5005241;28;20050;-67
2022/06/26 00:17:01;;;;;;;20.15;18.15;;;;;;;21.58;96.73;100571.13;5008548;28;20049;-68
2022/06/26 00:19:28;;;;;;;19.80;18.00;;;;;;;21.54;96.23;100567.91;5001252;28;20438;-67
2022/06/26 00:21:55;;;;;;;20.58;18.67;;;;;;;21.54;97.02;100572.44;4987453;28;20103;-67
2022/06/26 00:24:22;;;;;;;18.35;16.67;;;;;;;21.53;96.75;100578.81;5012318;28;20049;-67
2022/06/26 00:26:50;;;;;;;19.73;17.73;;;;;;;21.52;96.98;100579.78;5009027;28;20046;-68
2022/06/26 00:29:17;;;;;;;18.63;16.90;;;;;;;21.50;96.58;100585.31;5013251;28;20049;-67
2022/06/26 00:31:44;;;;;;;19.05;17.25;;;;;;;21.47;96.27;100582.94;5011882;28;20073;-65
2022/06/26 00:34:12;;;;;;;19.58;17.80;;;;;;;21.41;97.43;100580.91;5004366;28;20046;-66
2022/06/26 00:36:39;;;;;;;22.33;17.88;;;;;;;21.36;97.83;100575.22;5010186;28;20508;-66
2022/06/26 00:39:06;;;;;;;19.92;17.40;;;;;;;21.33;99.45;100572.84;5011039;28;20051;-67
2022/06/26 00:41:35;;;;;;;20.33;18.38;;;;;;;21.29;99.37;100584.84;5010710;28;20081;-65
2022/06/26 00:44:15;;;;;;;20.40;18.52;;;;;;;21.30;99.05;100581.16;5014150;28;20046;-65
2022/06/26 00:46:43;;;;;;;21.23;19.02;;;;;;;21.28;99.40;100580.50;4993506;28;20057;-64
2022/06/26 00:49:11;;;;;;;21.83;19.52;;;;;;;21.29;99.67;100587.53;5027756;28;20053;-64
2022/06/26 00:51:42;;;;;;;19.95;18.00;;;;;;;21.27;99.19;100587.69;5002405;28;20057;-64
2022/06/26 00:54:09;;;;;;;21.85;19.60;;;;;;;21.28;99.61;100588.53;4997610;28;20567;-66
2022/06/26 00:56:37;;;;;;;21.45;19.42;;;;;;;21.27;99.35;100582.34;5008223;28;20132;-63
2022/06/26 00:59:04;;;;;;;19.73;17.83;;;;;;;21.25;99.75;100578.97;5006205;28;20076;-64
2022/06/26 01:01:34;;;;;;;21.45;19.17;;;;;;;21.22;99.38;100590.84;4999906;28;20853;-64
2022/06/26 01:04:02;;;;;;;23.80;19.50;;;;;;;21.22;99.50;100590.03;5015175;28;20050;-64
2022/06/26 01:06:31;;;;;;;19.38;17.58;;;;;;;21.21;98.75;100581.16;5007060;28;20046;-63
2022/06/26 01:08:58;;;;;;;20.20;18.20;;;;;;;21.20;98.84;100587.47;5024024;28;20113;-65
2022/06/26 01:11:26;;;;;;;19.67;17.77;;;;;;;21.19;99.17;100585.81;5014749;28;20668;-65
2022/06/26 01:13:56;;;;;;;19.83;17.75;;;;;;;21.17;98.39;100585.16;4999616;28;20049;-64
2022/06/26 01:16:25;;;;;;;17.13;15.65;;;;;;;21.16;98.38;100585.28;5002657;28;20519;-66
2022/06/26 01:18:53;;;;;;;18.85;17.05;;;;;;;21.10;98.62;100586.78;5012114;28;20395;-65
2022/06/26 01:21:21;;;;;;;20.75;18.58;;;;;;;21.06;98.59;100595.28;5003073;28;20420;-66
2022/06/26 01:23:49;;;;;;;17.55;15.73;;;;;;;21.02;98.82;100597.44;5010821;28;20054;-63
2022/06/26 01:26:17;;;;;;;19.48;17.58;;;;;;;20.96;98.94;100596.22;5007456;28;20056;-65
2022/06/26 01:28:44;;;;;;;19.38;16.98;;;;;;;20.95;98.85;100593.72;4996304;28;20457;-64
2022/06/26 01:31:12;;;;;;;17.80;16.05;;;;;;;20.92;99.19;100602.91;5008244;28;20058;-65
2022/06/26 01:33:39;;;;;;;18.40;16.60;;;;;;;20.88;99.33;100604.22;5004196;28;20511;-65
2022/06/26 01:36:06;;;;;;;20.42;18.20;;;;;;;20.86;99.16;100605.38;5005308;28;20108;-66
2022/06/26 01:42:41;;;;;;;22.02;19.75;;;;;;;20.86;100.00;100606.22;5006138;28;20119;-68
2022/06/26 01:45:08;;;;;;;21.15;19.30;;;;;;;20.85;100.00;100614.38;5007142;28;20058;-67
2022/06/26 01:47:35;;;;;;;23.48;20.15;;;;;;;20.84;100.00;100612.72;5007515;28;20154;-67
2022/06/26 01:50:04;;;;;;;21.83;19.80;;;;;;;20.83;100.00;100606.50;5001412;28;20046;-67
2022/06/26 01:52:31;;;;;;;22.90;20.50;;;;;;;20.83;100.00;100611.88;5006140;28;20412;-68
2022/06/26 01:54:58;;;;;;;22.20;20.05;;;;;;;20.82;100.00;100614.72;4994805;28;20131;-66
2022/06/26 01:57:25;;;;;;;21.95;19.85;;;;;;;20.81;100.00;100611.19;5003526;28;20065;-67
2022/06/26 01:59:53;;;;;;;21.98;19.05;;;;;;;20.78;100.00;100614.19;4996756;28;20054;-66
2022/06/26 02:02:20;;;;;;;21.60;19.52;;;;;;;20.76;100.00;100612.66;5003976;28;20072;-67
2022/06/26 02:04:47;;;;;;;23.33;21.13;;;;;;;20.77;100.00;100607.16;5006981;28;20063;-68
2022/06/26 02:07:14;;;;;;;24.58;22.23;;;;;;;20.75;100.00;100611.81;5006303;28;20428;-68
2022/06/26 02:15:13;;;;;;;21.40;19.38;;;;;;;20.69;100.00;100615.94;5004369;28;20050;-68
2022/06/26 02:17:40;;;;;;;21.48;19.48;;;;;;;20.68;100.00;100616.13;5008634;28;20144;-67
2022/06/26 02:20:09;;;;;;;21.27;19.27;;;;;;;20.67;100.00;100617.13;5006051;28;20049;-67
2022/06/26 02:22:36;;;;;;;21.90;19.75;;;;;;;20.65;100.00;100608.41;5008410;28;20050;-66
2022/06/26 02:25:06;;;;;;;21.85;19.70;;;;;;;20.63;100.00;100611.25;5011476;28;20095;-66
2022/06/26 02:27:33;;;;;;;22.30;20.02;;;;;;;20.60;100.00;100614.22;5003886;28;20459;-68
2022/06/26 02:30:01;;;;;;;22.40;20.35;;;;;;;20.58;100.00;100616.22;4989471;28;20102;-66
2022/06/26 02:32:28;;;;;;;22.05;19.83;;;;;;;20.56;100.00;100620.88;5008726;28;20053;-67
2022/06/26 02:34:55;;;;;;;27.63;20.58;;;;;;;20.57;100.00;100624.38;5015115;28;20046;-68
2022/06/26 02:37:22;;;;;;;23.42;21.00;;;;;;;20.56;100.00;100625.38;5005820;28;20064;-67
2022/06/26 02:39:50;;;;;;;21.42;19.05;;;;;;;20.55;100.00;100629.88;5013862;28;20065;-68
2022/06/26 02:42:17;;;;;;;21.85;19.83;;;;;;;20.55;100.00;100635.25;5004574;28;20061;-67
2022/06/26 02:44:44;;;;;;;21.20;19.08;;;;;;;20.54;100.00;100624.72;4989216;28;20065;-67
2022/06/26 02:47:11;;;;;;;22.92;20.65;;;;;;;20.54;100.00;100630.91;4996017;28;20066;-67
2022/06/26 02:49:38;;;;;;;21.65;19.75;;;;;;;20.54;100.00;100636.25;5010479;28;20504;-66
2022/06/26 02:52:06;;;;;;;24.15;20.48;;;;;;;20.54;100.00;100638.09;4986770;28;20062;-67
2022/06/26 02:54:33;;;;;;;24.30;21.83;;;;;;;20.54;100.00;100635.41;5000216;28;20057;-66
2022/06/26 02:57:00;;;;;;;23.45;21.25;;;;;;;20.54;100.00;100638.91;4990341;28;20049;-66
2022/06/26 02:59:27;;;;;;;23.52;21.23;;;;;;;20.59;100.00;100641.13;5003972;28;20086;-66
2022/06/26 03:01:57;;;;;;;23.60;21.20;;;;;;;20.58;100.00;100637.63;4998918;28;20065;-67
2022/06/26 03:04:24;;;;;;;23.05;20.88;;;;;;;20.61;100.00;100636.44;5009338;28;20059;-67
2022/06/26 03:06:52;;;;;;;24.27;22.08;;;;;;;20.62;100.00;100633.59;4994356;28;20757;-67
2022/06/26 03:09:19;;;;;;;22.80;20.58;;;;;;;20.65;100.00;100635.16;5012145;28;20060;-68
2022/06/26 03:11:46;;;;;;;25.30;22.85;;;;;;;20.68;100.00;100642.88;5014483;28;20608;-68
2022/06/26 03:14:14;;;;;;;24.35;22.00;;;;;;;20.67;100.00;100641.19;5008800;28;20057;-66
2022/06/26 03:16:41;;;;;;;23.83;21.42;;;;;;;20.68;100.00;100642.88;4975778;28;20065;-67
2022/06/26 03:19:09;;;;;;;22.10;19.85;;;;;;;20.69;100.00;100642.72;5002635;28;20065;-67
2022/06/26 03:21:36;;;;;;;23.08;20.85;;;;;;;20.72;100.00;100639.72;5001357;28;20065;-67
2022/06/26 03:24:03;;;;;;;21.67;19.65;;;;;;;20.75;100.00;100649.25;4987370;28;20081;-66
2022/06/26 03:26:33;;;;;;;22.45;20.42;;;;;;;20.80;100.00;100646.13;5007546;28;20787;-66
2022/06/26 03:29:01;;;;;;;22.15;19.88;;;;;;;20.84;100.00;100650.16;5017474;28;20054;-66
2022/06/26 03:31:28;;;;;;;21.60;19.58;;;;;;;20.89;100.00;100647.84;5005718;28;20058;-66
2022/06/26 03:33:56;;;;;;;22.00;19.98;;;;;;;20.92;100.00;100650.22;4995477;28;20125;-67
2022/06/26 03:36:24;;;;;;;21.83;19.90;;;;;;;20.98;100.00;100653.13;5010165;28;20512;-67
2022/06/26 03:38:52;;;;;;;21.73;19.52;;;;;;;21.02;100.00;100644.78;5017700;28;20065;-66
2022/06/26 03:41:20;;;;;;;22.65;20.48;;;;;;;21.08;100.00;100655.69;5003035;28;20041;-66
2022/06/26 03:43:47;;;;;;;22.25;19.88;;;;;;;21.15;100.00;100659.41;5009985;28;20156;-66
2022/06/26 03:46:15;;;;;;;21.08;19.25;;;;;;;21.21;100.00;100661.47;5009327;28;20066;-67
2022/06/26 03:48:42;;;;;;;22.20;20.00;;;;;;;21.28;100.00;100660.81;5011264;28;20066;-67
2022/06/26 03:51:09;;;;;;;20.40;18.33;;;;;;;21.36;100.00;100663.59;5006364;28;20049;-66
2022/06/26 03:53:37;;;;;;;22.48;20.35;;;;;;;21.41;100.00;100670.13;4998243;28;20148;-68
2022/06/26 03:56:04;;;;;;;22.63;20.52;;;;;;;21.45;100.00;100671.50;5014520;28;20057;-66
2022/06/26 03:58:32;;;;;;;22.48;20.27;;;;;;;21.49;99.62;100672.88;5012101;28;20140;-66
2022/06/26 04:00:59;;;;;;;19.85;18.05;;;;;;;21.55;98.92;100679.41;5014448;28;20034;-66
2022/06/26 04:03:26;;;;;;;19.42;17.63;;;;;;;21.64;98.51;100672.25;5005877;28;20042;-66
2022/06/26 04:05:54;;;;;;;21.10;19.25;;;;;;;21.75;97.54;100671.97;5011687;28;20393;-65
2022/06/26 04:08:21;;;;;;;20.48;18.55;;;;;;;21.78;96.85;100676.16;5009327;28;20058;-67
2022/06/26 04:10:48;;;;;;;18.77;17.17;;;;;;;21.84;96.33;100678.19;5006979;28;20049;-67
2022/06/26 04:13:15;;;;;;;18.80;17.20;;;;;;;21.86;95.64;100684.22;5016515;28;20534;-67
2022/06/26 04:15:42;;;;;;;19.73;17.67;;;;;;;21.91;95.40;100677.38;5010427;28;20057;-67
2022/06/26 04:18:10;;;;;;;20.88;18.42;;;;;;;21.94;94.77;100674.38;5011543;28;20053;-67
2022/06/26 04:20:37;;;;;;;18.92;16.80;;;;;;;21.98;94.11;100673.06;5007232;28;20042;-68
2022/06/26 04:23:08;;;;;;;18.33;16.48;;;;;;;22.03;94.40;100675.25;5006808;28;20265;-66
2022/06/26 04:25:37;;;;;;;17.80;15.95;;;;;;;22.08;93.65;100672.91;5016821;28;20061;-66
2022/06/26 04:28:05;;;;;;;18.75;16.80;;;;;;;22.15;92.90;100684.66;4985896;28;20076;-68
2022/06/26 04:30:33;;;;;;;17.65;15.75;;;;;;;22.23;92.64;100679.34;5026987;28;20568;-67
2022/06/26 04:33:00;;;;;;;19.33;17.40;;;;;;;22.26;92.31;100682.69;5016507;28;20056;-67
2022/06/26 04:35:27;;;;;;;24.80;18.65;;;;;;;22.27;92.23;100692.41;5019954;28;20661;-66
2022/06/26 04:37:54;;;;;;;18.23;16.63;;;;;;;22.31;91.25;100683.88;4991639;28;20388;-66
2022/06/26 04:40:21;;;;;;;19.20;17.30;;;;;;;22.41;91.23;100681.03;5002234;28;20053;-63
2022/06/26 04:42:48;;;;;;;18.00;16.45;;;;;;;22.51;90.59;100681.72;5004311;28;20104;-63
2022/06/26 04:45:16;;;;;;;18.50;16.70;;;;;;;22.59;90.61;100683.56;5013918;28;20401;-64
2022/06/26 04:47:43;;;;;;;19.25;17.42;;;;;;;22.70;89.93;100686.78;5007809;28;21070;-65
2022/06/26 04:50:10;;;;;;;20.38;18.33;;;;;;;22.79;88.94;100686.78;5008323;28;20072;-63
2022/06/26 04:52:37;;;;;;;17.33;15.73;;;;;;;22.85;88.84;100688.78;5011558;28;20053;-64
2022/06/26 04:55:05;;;;;;;17.27;15.70;;;;;;;22.90;88.18;100689.13;5011149;28;20046;-65
2022/06/26 04:57:32;;;;;;;16.48;14.93;;;;;;;22.93;88.29;100686.13;4975814;28;20053;-65
2022/06/26 05:00:00;;;;;;;19.35;17.25;;;;;;;22.88;87.75;100691.13;5022903;28;20087;-65
2022/06/26 05:02:27;;;;;;;18.88;16.95;;;;;;;22.80;88.10;100693.81;4984730;28;20061;-65
2022/06/26 05:04:55;;;;;;;18.02;16.38;;;;;;;22.83;87.74;100696.13;5005293;28;20066;-64
2022/06/26 05:07:22;;;;;;;17.70;15.95;;;;;;;22.85;87.83;100688.78;4988819;28;20593;-64
2022/06/26 05:09:49;;;;;;;16.30;14.80;;;;;;;22.90;87.90;100697.19;5013663;28;20057;-64
2022/06/26 05:12:16;;;;;;;16.13;14.73;;;;;;;22.96;87.36;100693.81;5012346;28;20053;-64
2022/06/26 05:14:43;;;;;;;18.55;14.93;;;;;;;22.99;87.48;100698.84;5014728;28;20076;-65
2022/06/26 05:17:11;;;;;;;14.93;13.50;;;;;;;23.06;87.27;100693.66;5005311;28;20056;-65
2022/06/26 05:19:38;;;;;;;17.48;15.85;;;;;;;23.14;86.44;100701.69;5009309;28;20139;-65
2022/06/26 05:22:05;;;;;;;16.88;15.30;;;;;;;23.14;86.03;100702.53;4998723;28;20045;-65
2022/06/26 05:24:33;;;;;;;17.45;15.73;;;;;;;23.16;85.82;100711.25;5009699;28;20054;-64
2022/06/26 05:27:00;;;;;;;17.02;15.43;;;;;;;23.16;85.80;100711.25;5001107;28;20077;-64
2022/06/26 05:29:27;;;;;;;16.88;15.23;;;;;;;23.16;85.93;100711.25;5002543;28;20052;-64
2022/06/26 05:31:55;;;;;;;16.13;14.40;;;;;;;23.21;85.71;100706.22;5011539;28;20030;-64
2022/06/26 05:34:23;;;;;;;15.80;14.20;;;;;;;23.22;85.53;100715.94;5014511;28;20669;-64
2022/06/26 05:36:50;;;;;;;15.32;14.02;;;;;;;23.25;85.54;100709.41;5005794;28;20071;-64
2022/06/26 05:39:17;;;;;;;17.88;16.13;;;;;;;23.22;85.29;100715.94;5012967;28;20155;-64
2022/06/26 05:41:44;;;;;;;16.83;15.18;;;;;;;23.23;84.93;100714.94;4972237;28;20045;-65
2022/06/26 05:44:11;;;;;;;16.85;15.32;;;;;;;23.25;84.99;100720.97;5006437;28;20057;-65
2022/06/26 05:46:41;;;;;;;16.27;14.68;;;;;;;23.25;84.95;100718.31;5006770;28;20054;-65
2022/06/26 05:49:08;;;;;;;16.42;14.80;;;;;;;23.32;84.80;100721.13;4999167;28;20213;-65
2022/06/26 05:51:36;;;;;;;13.25;12.15;;;;;;;23.39;84.59;100716.75;5026755;28;20046;-65
2022/06/26 05:54:03;;;;;;;15.43;14.02;;;;;;;23.41;83.83;100712.03;5008145;28;20115;-63
2022/06/26 05:56:30;;;;;;;15.25;13.77;;;;;;;23.41;83.88;100720.09;5004831;28;20050;-64
2022/06/26 05:58:57;;;;;;;15.82;14.20;;;;;;;23.43;83.19;100715.41;5017439;28;20055;-64
2022/06/26 06:01:25;;;;;;;15.68;14.18;;;;;;;23.47;82.82;100721.28;5005493;28;20068;-65
2022/06/26 06:03:52;;;;;;;14.98;13.43;;;;;;;23.59;82.72;100722.56;4999026;28;20052;-64
2022/06/26 06:06:19;;;;;;;16.20;14.48;;;;;;;23.65;81.81;100724.63;4988177;28;20772;-62
2022/06/26 06:08:46;;;;;;;16.20;14.68;;;;;;;23.73;81.55;100721.91;5011119;28;20072;-62
2022/06/26 06:11:14;;;;;;;15.88;14.45;;;;;;;23.88;81.35;100731.94;5002254;28;20184;-62
2022/06/26 06:13:42;;;;;;;16.02;14.52;;;;;;;24.03;80.58;100726.66;4988615;28;20065;-62
2022/06/26 06:16:10;;;;;;;15.35;14.05;;;;;;;24.19;79.98;100724.72;5008931;28;20077;-61
2022/06/26 06:18:37;;;;;;;13.88;12.77;;;;;;;24.30;78.86;100723.47;5007538;28;20167;-63
2022/06/26 06:21:11;;;;;;;13.43;12.02;;;;;;;24.33;76.14;100725.81;4989560;28;20050;-63
2022/06/26 06:23:38;;;;;;;12.63;11.63;;;;;;;24.36;75.65;100730.84;5004136;28;20058;-62
2022/06/26 06:26:07;;;;;;;13.20;11.75;;;;;;;24.47;75.36;100730.47;5012660;28;20572;-62
2022/06/26 06:28:34;;;;;;;11.80;10.63;;;;;;;24.55;73.26;100721.50;5001486;28;20717;-61
2022/06/26 06:31:01;;;;;;;11.13;9.85;;;;;;;24.66;72.35;100723.75;4999369;28;20061;-61
2022/06/26 06:33:28;;;;;;;11.25;10.25;;;;;;;24.79;72.08;100727.72;5015350;28;20074;-61
2022/06/26 06:35:56;;;;;;;15.77;10.23;;;;;;;24.88;70.67;100735.53;4998046;28;20053;-63
2022/06/26 06:38:24;;;;;;;12.65;9.63;;;;;;;24.91;71.43;100727.09;5001732;28;20373;-63
2022/06/26 06:40:51;;;;;;;12.38;9.90;;;;;;;25.05;70.74;100738.09;4988922;28;20060;-64
2022/06/26 06:43:19;;;;;;;11.18;10.18;;;;;;;25.13;70.19;100733.50;5005159;28;20038;-63
2022/06/26 06:45:46;;;;;;;9.77;8.90;;;;;;;25.18;69.65;100736.50;5002448;28;20543;-65
2022/06/26 06:48:13;;;;;;;13.35;9.13;;;;;;;25.23;68.80;100739.47;4969260;28;20134;-65
2022/06/26 06:50:40;;;;;;;9.05;8.35;;;;;;;25.25;69.12;100745.50;5001356;28;20046;-65
2022/06/26 06:53:08;;;;;;;10.80;8.93;;;;;;;25.31;68.64;100743.09;5009462;28;20065;-65
2022/06/26 06:55:35;;;;;;;11.98;9.10;;;;;;;25.43;68.66;100739.75;5005170;28;20639;-65
2022/06/26 06:58:03;;;;;;;10.75;9.20;;;;;;;25.55;67.37;100748.25;5011061;28;20050;-68
2022/06/26 07:00:30;;;;;;;12.15;9.45;;;;;;;25.60;67.44;100745.81;5002778;28;20540;-68
2022/06/26 07:03:01;;;;;;;11.20;9.63;;;;;;;25.61;66.97;100744.78;5002378;28;20042;-68
2022/06/26 07:05:29;;;;;;;9.40;8.50;;;;;;;25.71;67.54;100749.91;5005912;28;20169;-65
2022/06/26 07:07:56;;;;;;;10.48;9.38;;;;;;;25.75;66.87;100745.81;5002696;28;20054;-66
2022/06/26 07:10:24;;;;;;;9.50;8.70;;;;;;;25.85;66.66;100749.13;4992089;28;20475;-66
2022/06/26 07:12:55;;;;;;;8.90;8.07;;;;;;;26.00;66.60;100743.69;5007807;28;20041;-66
2022/06/26 07:15:23;;;;;;;9.23;8.25;;;;;;;26.17;64.76;100731.66;5003592;28;20045;-67
2022/06/26 07:17:50;;;;;;;10.13;9.15;;;;;;;26.25;64.15;100734.25;5023447;28;20039;-68
2022/06/26 07:20:18;;;;;;;9.15;8.35;;;;;;;26.34;63.38;100743.03;5020856;28;20108;-68
2022/06/26 07:22:45;;;;;;;9.82;8.82;;;;;;;26.43;63.23;100736.56;4995384;28;20439;-68
2022/06/26 07:25:19;;;;;;;8.88;8.18;;;;;;;26.53;62.78;100738.94;5009321;28;20096;-71
2022/06/26 07:27:46;;;;;;;11.00;8.63;;;;;;;26.58;61.86;100730.28;5009251;28;20042;-68
2022/06/26 07:30:15;;;;;;;8.15;7.45;;;;;;;26.58;61.13;100722.16;4989743;28;20046;-66
2022/06/26 07:32:43;;;;;;;7.95;7.18;;;;;;;26.61;61.43;100725.28;4996346;28;20053;-67
2022/06/26 07:35:11;;;;;;;7.05;6.45;;;;;;;26.77;59.52;100719.66;5010982;28;20045;-66
2022/06/26 07:37:38;;;;;;;11.27;6.85;;;;;;;26.95;58.67;100726.44;5006179;28;20057;-67
2022/06/26 07:40:07;;;;;;;7.05;6.35;;;;;;;27.09;57.10;100722.03;4987397;28;20061;-67
2022/06/26 07:42:34;;;;;;;6.97;6.28;;;;;;;27.08;56.65;100723.84;5006821;28;20144;-67
2022/06/26 07:45:01;;;;;;;8.20;6.47;;;;;;;27.16;57.02;100729.16;5011980;28;20041;-68
2022/06/26 07:47:28;;;;;;;7.50;6.82;;;;;;;27.23;56.72;100726.50;4988406;28;20500;-67
2022/06/26 07:49:55;;;;;;;8.40;6.10;;;;;;;27.36;56.24;100723.88;5011434;28;20057;-67
2022/06/26 07:52:23;;;;;;;5.28;4.82;;;;;;;27.46;55.88;100724.34;5007588;28;20050;-66
2022/06/26 07:54:50;;;;;;;6.38;5.78;;;;;;;27.56;54.53;100726.72;5002077;28;20065;-66
2022/06/26 07:57:18;;;;;;;5.43;4.97;;;;;;;27.62;53.19;100731.31;5004479;28;20058;-66
2022/06/26 07:59:45;;;;;;;6.55;4.70;;;;;;;27.74;52.19;100729.78;5024282;28;20057;-67
2022/06/26 08:02:13;;;;;;;5.53;5.03;;;;;;;27.77;51.90;100723.09;5012971;28;20512;-66
2022/06/26 08:04:40;;;;;;;5.03;4.53;;;;;;;27.69;50.67;100729.50;5010231;28;20142;-66
2022/06/26 08:07:08;;;;;;;5.97;4.43;;;;;;;27.60;50.32;100729.84;5006600;28;20053;-67
2022/06/26 08:09:35;;;;;;;5.45;4.15;;;;;;;27.51;51.14;100732.72;5009523;28;20057;-68
2022/06/26 08:12:02;;;;;;;5.15;4.65;;;;;;;27.50;51.03;100727.50;5010608;28;20058;-67
2022/06/26 08:14:29;;;;;;;5.10;4.57;;;;;;;27.57;51.46;100722.16;5020569;28;20527;-67
2022/06/26 08:16:57;;;;;;;4.82;4.32;;;;;;;27.60;50.87;100733.38;5011615;28;20053;-68
2022/06/26 08:19:24;;;;;;;5.40;4.00;;;;;;;27.64;50.63;100723.84;5014627;28;20672;-68
2022/06/26 08:22:00;;;;;;;4.65;4.20;;;;;;;27.77;50.55;100717.69;4991221;28;20046;-67
2022/06/26 08:24:29;;;;;;;4.65;4.07;;;;;;;27.85;48.69;100724.81;5008556;28;20060;-66
2022/06/26 08:26:57;;;;;;;5.25;3.38;;;;;;;27.89;47.43;100728.78;5006612;28;20050;-66
2022/06/26 08:29:24;;;;;;;4.32;3.90;;;;;;;27.95;47.58;100722.56;5007211;28;20058;-66
2022/06/26 08:31:52;;;;;;;4.22;3.83;;;;;;;28.12;47.38;100723.06;5007602;28;20755;-64
2022/06/26 08:34:19;;;;;;;4.80;3.30;;;;;;;28.44;46.80;100718.78;5001404;28;20100;-69
2022/06/26 08:36:48;;;;;;;4.38;3.58;;;;;;;28.68;45.85;100729.03;5004982;28;20058;-69
2022/06/26 08:39:16;;;;;;;3.67;3.00;;;;;;;28.88;45.22;100722.81;5011085;28;20042;-67
2022/06/26 08:41:45;;;;;;;6.93;3.50;;;;;;;28.99;45.10;100719.50;5010818;28;20539;-66
2022/06/26 08:44:14;;;;;;;5.00;3.38;;;;;;;29.10;44.50;100726.19;5007183;28;20056;-66
2022/06/26 08:46:44;;;;;;;5.88;3.83;;;;;;;29.16;44.70;100719.91;4988488;28;20076;-65
2022/06/26 08:49:17;;;;;;;3.72;3.40;;;;;;;29.27;43.52;100722.84;5010352;28;20046;-67
2022/06/26 08:51:47;;;;;;;5.80;3.85;;;;;;;29.38;43.55;100732.19;5001105;28;20052;-65
2022/06/26 08:54:15;;;;;;;6.03;3.95;;;;;;;29.47;43.37;100741.75;5012856;28;20088;-67
2022/06/26 08:56:45;;;;;;;5.00;4.30;;;;;;;29.57;43.98;100737.81;5011851;28;20073;-67
2022/06/26 08:59:14;;;;;;;4.82;3.72;;;;;;;29.80;43.18;100735.44;4995946;28;20037;-68
2022/06/26 09:01:42;;;;;;;5.25;4.60;;;;;;;29.83;43.40;100737.75;4993796;28;20052;-67
2022/06/26 09:04:12;;;;;;;4.97;4.13;;;;;;;29.92;42.75;100741.88;5014507;28;20058;-66
2022/06/26 09:06:41;;;;;;;4.57;3.70;;;;;;;29.85;42.46;100737.50;5005983;28;20053;-67
2022/06/26 09:09:14;;;;;;;5.05;4.13;;;;;;;30.02;42.08;100742.25;5007605;28;20536;-66
2022/06/26 09:11:43;;;;;;;3.78;3.38;;;;;;;30.11;40.52;100737.41;5004883;28;20513;-66
2022/06/26 09:14:12;;;;;;;2.85;2.65;;;;;;;30.21;40.58;100735.09;5009071;28;20085;-68
2022/06/26 09:16:42;;;;;;;3.30;3.00;;;;;;;30.46;38.89;100739.78;4990982;28;20416;-67
2022/06/26 09:19:20;;;;;;;3.83;3.38;;;;;;;30.58;39.88;100729.06;5007345;28;20453;-66
2022/06/26 09:21:48;;;;;;;4.45;3.80;;;;;;;30.75;40.78;100724.75;5008404;28;20072;-67
2022/06/26 09:24:17;;;;;;;5.32;3.65;;;;;;;30.86;39.72;100739.53;5006287;28;20208;-67
2022/06/26 09:27:03;;;;;;;3.75;3.45;;;;;;;30.82;40.20;100733.69;4990123;28;20058;-67
2022/06/26 09:29:31;;;;;;;4.38;3.97;;;;;;;30.98;40.53;100735.88;4992015;28;20056;-66
2022/06/26 09:32:12;;;;;;;4.25;3.72;;;;;;;31.16;39.07;100729.66;4991380;28;20129;-66
2022/06/26 09:34:51;;;;;;;4.80;3.38;;;;;;;31.14;38.74;100742.63;4999589;28;20042;-67
2022/06/26 09:37:20;;;;;;;5.85;3.38;;;;;;;30.97;39.41;100739.63;5004462;28;20120;-67
2022/06/26 09:40:08;;;;;;;4.40;4.00;;;;;;;31.12;40.04;100738.47;5004899;28;20053;-66
2022/06/26 09:42:35;;;;;;;5.90;4.40;;;;;;;31.43;38.73;100743.00;5003385;28;20124;-65
2022/06/26 09:45:08;;;;;;;4.53;3.88;;;;;;;31.39;39.03;100737.22;5003461;28;20054;-66
2022/06/26 09:47:36;;;;;;;4.60;3.95;;;;;;;31.67;38.42;100739.41;5012125;28;20096;-66
2022/06/26 09:50:08;;;;;;;4.05;3.63;;;;;;;31.80;38.32;100734.88;5005112;28;20065;-66
2022/06/26 09:52:35;;;;;;;4.28;3.88;;;;;;;31.86;37.79;100734.00;5006874;28;20080;-66
2022/06/26 09:55:05;;;;;;;4.72;4.03;;;;;;;31.96;37.57;100737.81;5006480;28;20050;-66
2022/06/26 09:57:33;;;;;;;4.88;4.47;;;;;;;32.26;37.74;100735.13;5005509;28;20058;-67
2022/06/26 10:00:01;;;;;;;3.78;3.47;;;;;;;32.30;36.89;100740.13;5002961;28;20092;-67
2022/06/26 10:08:06;;;;;;;4.32;3.92;;;;;;;32.13;37.62;100732.59;5003389;28;20129;-67
2022/06/26 10:10:35;;;;;;;4.30;3.90;;;;;;;32.36;37.34;100728.31;5004512;28;20057;-66
2022/06/26 10:13:06;;;;;;;7.00;4.20;;;;;;;32.42;37.05;100735.56;4990039;28;20081;-66
2022/06/26 10:16:05;;;;;;;4.30;3.70;;;;;;;32.34;36.53;100746.78;5016356;28;20782;-66
2022/06/26 10:19:10;;;;;;;4.03;3.70;;;;;;;31.91;37.19;100734.13;4972718;28;20049;-63
2022/06/26 10:21:38;;;;;;;4.27;3.97;;;;;;;31.58;37.88;100748.94;5001634;28;20144;-65
2022/06/26 10:24:06;;;;;;;5.38;4.40;;;;;;;31.39;38.44;100739.94;5001688;28;20042;-65
2022/06/26 10:26:33;;;;;;;4.30;3.90;;;;;;;31.31;38.85;100745.66;4986366;28;20665;-64
2022/06/26 10:29:11;;;;;;;4.10;3.78;;;;;;;31.19;39.54;100741.97;4994832;28;20059;-65
2022/06/26 10:31:50;;;;;;;4.15;3.38;;;;;;;31.08;38.85;100740.81;4999297;28;20061;-65
2022/06/26 10:34:24;;;;;;;4.00;3.70;;;;;;;31.19;38.79;100740.06;4998900;28;20061;-65
2022/06/26 10:37:02;;;;;;;;;;;;;;;31.17;39.86;100744.91;5001504;28;20099;-65
2022/06/26 10:39:38;;;;;;;4.65;3.95;;;;;;;31.24;38.68;100745.66;5004212;28;20368;-65
2022/06/26 10:45:00;;;;;;;5.15;4.35;;;;;;;31.44;39.33;100734.63;5002320;28;20046;-64
2022/06/26 10:47:43;;;;;;;6.70;4.97;;;;;;;31.26;39.75;100737.31;5004289;28;20054;-63
2022/06/26 10:50:30;;;;;;;5.30;4.50;;;;;;;31.29;39.45;100742.31;5012319;28;20053;-65
2022/06/26 10:53:22;;;;;;;4.47;4.07;;;;;;;31.43;39.49;100738.41;5004598;28;20120;-64
2022/06/26 10:56:00;;;;;;;4.47;4.07;;;;;;;31.56;39.09;100740.16;4982691;28;20042;-64
2022/06/26 10:58:31;;;;;;;4.22;3.92;;;;;;;31.60;38.85;100738.63;4992881;28;20050;-64
2022/06/26 11:01:00;;;;;;;5.90;4.45;;;;;;;31.69;38.92;100736.44;5005440;28;20046;-66
2022/06/26 11:03:29;;;;;;;4.60;4.20;;;;;;;31.80;38.50;100732.97;4976148;28;20035;-63
2022/06/26 11:06:02;;;;;;;4.78;4.15;;;;;;;32.05;38.09;100724.72;4999948;28;20084;-64
2022/06/26 11:08:32;;;;;;;4.35;4.03;;;;;;;32.31;37.56;100726.28;5004507;28;20072;-64
2022/06/26 11:11:33;;;;;;;4.00;3.70;;;;;;;32.36;36.65;100720.13;5003805;28;20065;-64
2022/06/26 11:14:06;;;;;;;4.22;3.83;;;;;;;32.27;36.98;100714.16;5016662;28;20054;-64
2022/06/26 11:16:35;;;;;;;4.20;3.60;;;;;;;32.15;36.89;100719.59;4986033;28;20094;-64
2022/06/26 11:19:06;;;;;;;5.72;4.38;;;;;;;32.05;37.17;100726.63;4991638;28;20528;-64
2022/06/26 11:21:34;;;;;;;4.47;3.85;;;;;;;32.04;37.45;100722.25;4990481;28;20149;-64
2022/06/26 11:24:02;;;;;;;4.28;3.60;;;;;;;31.98;37.94;100715.84;5004947;28;20042;-65
2022/06/26 11:26:29;;;;;;;3.85;3.55;;;;;;;32.00;37.64;100717.25;5003685;28;20057;-65
2022/06/26 11:28:59;;;;;;;6.30;3.78;;;;;;;32.06;37.71;100714.66;4987602;28;20184;-64
2022/06/26 11:31:29;;;;;;;4.05;3.67;;;;;;;31.96;37.46;100716.03;4979042;28;20133;-64
2022/06/26 11:34:12;;;;;;;4.40;4.00;;;;;;;31.96;38.31;100710.59;5005302;28;20042;-64
2022/06/26 11:36:54;;;;;;;4.57;3.88;;;;;;;32.18;37.91;100713.66;4992727;28;20054;-65
2022/06/26 11:39:39;;;;;;;4.55;4.15;;;;;;;32.33;37.69;100707.78;5001042;28;20057;-65
2022/06/26 11:42:17;;;;;;;4.47;4.05;;;;;;;32.44;37.57;100700.75;4998641;28;20153;-65